EDT,Max TemperatureF,Mean TemperatureF,Min TemperatureF,Max Dew PointF,MeanDew PointF,Min DewpointF,Max Humidity, Mean Humidity, Min Humidity, Max Sea Level PressureIn, Mean Sea Level PressureIn, Min Sea Level PressureIn, Max VisibilityMiles, Mean VisibilityMiles, Min VisibilityMiles, Max Wind SpeedMPH, Mean Wind SpeedMPH, Max Gust SpeedMPH,PrecipitationIn, CloudCover, Events, WindDirDegrees
2012-9-1,77,68,58,59,57,54,94,64,44,30.22,30.17,30.12,10,10,7,15,7,22,0.00,0,,26
2012-9-2,83,70,56,58,55,50,94,62,33,30.15,30.09,30.01,10,10,10,14,6,18,0.00,0,,107
2012-9-3,88,74,59,67,59,54,95,68,39,30.04,29.99,29.91,10,10,5,14,5,22,0.00,2,Rain,128
2012-9-4,78,72,65,68,66,64,98,85,63,29.96,29.92,29.87,10,9,0,14,5,16,0.00,1,Fog-Rain,45
2012-9-5,82,70,58,67,63,57,97,78,46,29.88,29.82,29.77,10,9,7,22,5,26,0.00,1,,213
2012-9-6,77,66,56,65,56,45,97,71,34,29.94,29.91,29.85,10,10,10,15,4,18,0.00,2,,238
2012-9-7,68,63,58,62,58,54,97,84,64,29.94,29.88,29.81,10,9,3,14,5,18,0.00,7,Rain,230
2012-9-8,66,63,60,53,49,44,78,62,48,29.85,29.78,29.73,10,10,7,17,12,25,0.00,4,,323
2012-9-9,67,62,56,50,46,42,79,55,43,30.15,30.02,29.86,10,10,7,13,6,18,0.00,4,,345
2012-9-10,72,60,47,54,50,45,95,67,45,30.22,30.16,30.08,10,10,10,17,5,21,0.00,0,,208
2012-9-11,80,69,58,58,54,51,82,59,37,30.10,30.05,30.00,10,10,10,17,9,29,0.00,0,,192
2012-9-12,80,74,68,67,59,51,89,64,48,30.19,30.08,30.03,10,10,10,20,11,26,0.00,1,,231
2012-9-13,68,61,54,56,51,46,96,70,46,30.30,30.25,30.19,10,10,10,12,7,16,0.00,6,Rain,337
2012-9-14,67,58,48,53,48,42,98,70,40,30.33,30.28,30.26,10,10,7,15,6,20,0.00,3,,311
2012-9-15,65,58,52,51,48,44,89,69,52,30.37,30.27,30.14,10,10,10,14,7,17,0.00,2,,27
2012-9-16,77,64,51,57,49,41,94,60,33,30.13,30.01,29.94,10,10,10,21,8,30,0.00,0,,194
2012-9-17,69,62,54,61,55,48,91,77,56,29.94,29.83,29.77,10,10,3,22,8,30,0.00,5,Rain,249
2012-9-18,54,52,49,51,43,33,94,72,51,29.94,29.81,29.74,10,10,3,21,11,30,0.00,7,Rain,352
2012-9-19,59,50,42,48,42,31,95,70,48,30.01,29.92,29.73,10,10,3,18,8,36,0.00,6,Rain,167
2012-9-20,61,56,52,53,48,45,94,75,59,29.84,29.78,29.72,10,10,5,23,12,30,0.00,6,Rain,234
2012-9-21,60,54,48,50,45,40,89,69,54,29.85,29.81,29.76,10,10,3,21,11,26,0.00,5,Rain,238
2012-9-22,55,50,45,47,42,38,90,72,55,30.04,29.86,29.72,10,10,3,23,10,33,0.00,6,Rain,328
2012-9-23,55,51,45,43,40,37,90,70,56,30.17,30.11,30.03,10,10,7,17,14,26,0.00,6,Rain,299
2012-9-24,63,54,44,53,39,33,93,54,34,30.15,29.90,29.69,10,10,10,31,13,41,0.00,4,,228
2012-9-25,62,54,46,48,45,41,93,68,51,29.94,29.87,29.80,10,10,10,13,7,16,0.00,3,,58
2012-9-26,58,50,41,46,42,39,98,74,48,30.24,30.08,29.94,10,10,10,10,3,,0.00,3,,7
2012-9-27,57,50,42,44,42,38,97,75,55,30.33,30.28,30.22,10,10,10,9,4,,0.00,2,,35
2012-9-28,65,52,39,50,45,39,98,83,55,30.22,30.18,30.10,10,10,10,10,4,,0.00,0,,194
2012-9-29,64,54,44,53,48,44,99,81,51,30.12,30.08,30.05,10,10,1,12,2,,0.00,1,,27
2012-9-30,60,51,42,48,44,40,96,78,48,30.09,30.04,30.00,10,10,10,10,3,,0.00,1,,63